CST,Max TemperatureF,Mean TemperatureF,Min TemperatureF,Max Dew PointF,MeanDew PointF,Min DewpointF,Max Humidity, Mean Humidity, Min Humidity, Max Sea Level PressureIn, Mean Sea Level PressureIn, Min Sea Level PressureIn, Max VisibilityMiles, Mean VisibilityMiles, Min VisibilityMiles, Max Wind SpeedMPH, Mean Wind SpeedMPH, Max Gust SpeedMPH,PrecipitationIn, CloudCover, Events, WindDirDegrees
2012-12-1,60,48,36,55,48,36,100,90,80,29.92,29.85,29.78,8,3,0,15,4,18,0.00,5,Fog,276
2012-12-2,68,51,34,45,40,33,92,65,37,30.03,29.90,29.69,10,10,4,15,7,20,0.00,0,,183
2012-12-3,63,51,39,52,40,26,93,66,39,30.14,29.84,29.57,10,10,7,24,12,29,0.00,0,,302
2012-12-4,57,43,29,24,22,19,69,47,25,30.32,30.27,30.16,10,10,10,14,6,15,0.00,0,,261
2012-12-5,61,46,30,25,21,18,61,42,22,30.29,30.10,29.91,10,10,10,29,15,36,0.00,0,,176
2012-12-6,51,44,37,36,28,23,70,54,38,29.99,29.91,29.83,10,10,10,23,9,30,T,2,,38
2012-12-7,44,36,27,33,28,22,92,78,64,30.01,29.95,29.89,10,10,6,10,4,13,0.00,4,,322
2012-12-8,45,34,22,36,28,21,100,79,58,30.01,29.93,29.83,10,6,1,15,6,17,0.00,5,,88
2012-12-9,41,27,13,37,15,2,92,66,39,30.26,30.07,29.83,10,9,3,32,17,40,0.00,5,,313
2012-12-10,32,18,3,6,2,-1,86,56,26,30.24,30.09,29.96,10,10,10,20,11,26,0.00,1,,245
2012-12-11,45,33,21,19,14,4,71,52,33,30.12,30.06,30.01,10,10,10,21,10,29,0.00,1,,240
2012-12-12,54,41,27,17,15,13,53,37,20,30.06,30.01,29.96,10,10,10,29,19,38,0.00,0,,186
2012-12-13,54,41,28,21,19,17,63,46,28,30.07,30.03,29.96,10,10,9,26,6,33,0.00,0,,167
2012-12-14,57,40,23,45,35,18,92,72,51,30.01,29.75,29.48,10,8,3,24,12,30,0.32,4,Rain-Thunderstorm,145
2012-12-15,52,44,35,45,41,32,93,78,63,29.75,29.56,29.38,10,9,6,21,10,26,0.05,5,Rain,275
2012-12-16,39,33,27,32,28,25,96,83,70,29.85,29.79,29.72,10,8,4,13,6,17,0.00,3,,351
2012-12-17,47,36,24,29,27,24,100,71,42,29.83,29.72,29.55,10,8,4,23,10,29,0.00,0,,224
2012-12-18,55,46,36,29,25,21,64,46,27,29.83,29.72,29.55,10,10,10,20,10,26,0.00,0,,255
2012-12-19,42,35,28,34,30,26,96,80,64,29.82,29.70,29.57,10,5,1,38,15,51,0.05,6,Rain-Snow,36
2012-12-20,32,26,20,25,17,13,92,71,49,30.31,30.06,29.74,10,7,0,41,18,54,0.03,4,Fog-Snow,315
2012-12-21,39,26,13,25,18,12,88,72,56,30.35,30.28,30.18,10,10,10,12,3,14,0.00,0,,167
2012-12-22,47,32,17,28,22,15,92,71,49,30.16,30.04,29.94,10,10,7,15,4,18,0.00,0,,328
2012-12-23,25,19,13,18,13,10,92,80,68,30.09,30.04,29.99,9,7,5,14,8,18,0.00,1,,352
2012-12-24,22,17,12,11,9,5,80,69,57,30.21,30.16,30.08,10,10,7,21,11,23,0.00,1,,15
2012-12-25,18,14,9,10,5,1,80,70,59,30.43,30.37,30.22,10,10,10,26,15,31,0.00,4,,12
2012-12-26,24,14,3,9,5,-1,87,69,50,30.40,30.27,30.13,10,10,10,12,6,15,0.00,0,,43
2012-12-27,29,21,12,20,17,8,88,76,63,30.10,29.99,29.93,10,9,5,21,8,26,T,7,,92
2012-12-28,25,18,11,20,13,7,88,72,55,30.21,30.08,29.96,10,9,6,18,11,22,0.00,5,,321
2012-12-29,39,23,7,19,12,3,88,66,44,30.33,30.28,30.19,10,10,9,16,8,20,0.00,0,,255
2012-12-30,48,36,24,23,19,15,68,49,29,30.27,30.13,30.03,10,10,10,37,15,44,0.00,0,,215
2012-12-31,31,25,18,21,19,15,96,80,63,30.27,30.12,30.05,10,2,0,18,9,23,0.48,8,Fog-Snow,32